createdAt,value
2023-04-19T00:01:23.414Z,9.19
2023-04-19T00:04:08.940Z,9.18
2023-04-19T00:06:46.377Z,9.23
2023-04-19T00:09:13.194Z,9.18
2023-04-19T00:11:52.241Z,9.14
2023-04-19T00:14:21.213Z,9.13
2023-04-19T00:16:48.058Z,9.14
2023-04-19T00:19:14.845Z,9.06
2023-04-19T00:21:43.614Z,9.02
2023-04-19T00:24:13.161Z,8.89
2023-04-19T00:26:41.443Z,8.90
2023-04-19T00:29:08.543Z,8.89
2023-04-19T00:31:35.514Z,8.88
2023-04-19T00:34:02.286Z,8.89
2023-04-19T00:36:32.440Z,8.89
2023-04-19T00:38:59.086Z,8.77
2023-04-19T00:41:31.903Z,8.60
2023-04-19T00:43:58.691Z,8.53
2023-04-19T00:46:26.258Z,8.45
2023-04-19T00:48:55.082Z,8.40
2023-04-19T00:51:21.981Z,8.37
2023-04-19T00:53:49.575Z,8.42
2023-04-19T00:56:20.845Z,8.38
2023-04-19T00:58:51.891Z,8.36
2023-04-19T01:01:21.703Z,8.26
2023-04-19T01:03:51.146Z,8.20
2023-04-19T01:06:21.000Z,8.23
2023-04-19T01:08:48.411Z,8.21
2023-04-19T01:11:17.449Z,8.19
2023-04-19T01:13:52.676Z,8.19
2023-04-19T01:16:21.633Z,8.19
2023-04-19T01:18:52.228Z,8.23
2023-04-19T01:21:25.421Z,8.23
2023-04-19T01:23:52.465Z,8.25
2023-04-19T01:26:21.643Z,8.29
2023-04-19T01:28:49.684Z,8.33
2023-04-19T01:31:18.674Z,8.32
2023-04-19T01:33:47.871Z,8.33
2023-04-19T01:36:14.760Z,8.38
2023-04-19T01:38:51.398Z,8.41
2023-04-19T01:41:27.322Z,8.41
2023-04-19T01:43:56.313Z,8.45
2023-04-19T01:46:23.155Z,8.47
2023-04-19T01:51:47.830Z,8.49
2023-04-19T01:54:14.605Z,8.50
2023-04-19T01:56:42.918Z,8.51
2023-04-19T01:59:12.062Z,8.52
2023-04-19T02:01:57.935Z,8.55
2023-04-19T02:04:24.834Z,8.55
2023-04-19T02:06:51.660Z,8.53
2023-04-19T02:09:19.642Z,8.58
2023-04-19T02:11:46.410Z,8.61
2023-04-19T02:14:19.552Z,8.60
2023-04-19T02:16:50.191Z,8.64
2023-04-19T02:19:19.086Z,8.61
2023-04-19T02:21:51.991Z,8.62
2023-04-19T02:24:20.126Z,8.64
2023-04-19T02:26:46.710Z,8.65
2023-04-19T02:29:16.989Z,8.67
2023-04-19T02:31:46.491Z,8.69
2023-04-19T02:34:13.568Z,8.72
2023-04-19T02:36:43.905Z,8.73
2023-04-19T02:39:13.008Z,8.72
2023-04-19T02:41:49.219Z,8.78
2023-04-19T02:44:18.632Z,8.79
2023-04-19T02:47:08.768Z,8.80
2023-04-19T02:49:42.733Z,8.81
2023-04-19T02:52:12.139Z,8.82
2023-04-19T02:54:38.779Z,8.79
2023-04-19T02:57:16.499Z,8.82
2023-04-19T02:59:46.626Z,8.82
2023-04-19T03:02:17.800Z,8.80
2023-04-19T03:04:55.996Z,8.80
2023-04-19T03:07:41.940Z,8.79
2023-04-19T03:10:14.450Z,8.84
2023-04-19T03:12:41.132Z,8.86
2023-04-19T03:15:08.664Z,8.88
2023-04-19T03:17:45.071Z,8.85
2023-04-19T03:20:12.169Z,8.90
2023-04-19T03:22:38.999Z,8.85
2023-04-19T03:25:06.987Z,8.88
2023-04-19T03:27:36.773Z,8.85
2023-04-19T03:30:10.138Z,8.87
2023-04-19T03:32:39.326Z,8.89
2023-04-19T03:35:15.131Z,8.92
2023-04-19T03:37:44.372Z,8.91
2023-04-19T03:40:11.376Z,8.90
2023-04-19T03:42:38.023Z,8.93
2023-04-19T03:45:05.488Z,8.89
2023-04-19T03:47:32.342Z,8.92
2023-04-19T03:50:00.481Z,8.93
2023-04-19T03:53:02.778Z,8.88
2023-04-19T03:55:29.546Z,8.87
2023-04-19T03:58:00.638Z,8.81
2023-04-19T04:00:47.204Z,8.82
2023-04-19T04:03:16.311Z,8.78
2023-04-19T04:05:51.916Z,8.72
2023-04-19T04:08:25.778Z,8.69
2023-04-19T04:11:12.625Z,8.66
2023-04-19T04:13:47.287Z,8.67
2023-04-19T04:16:15.837Z,8.65
2023-04-19T04:18:44.070Z,8.59
2023-04-19T04:21:11.835Z,8.57
2023-04-19T04:23:47.485Z,8.56
2023-04-19T04:26:20.159Z,8.55
2023-04-19T04:29:27.165Z,8.47
2023-04-19T04:32:04.990Z,8.48
2023-04-19T04:34:39.300Z,8.42
2023-04-19T04:37:08.988Z,8.44
2023-04-19T04:39:40.369Z,8.39
2023-04-19T04:42:10.377Z,8.40
2023-04-19T04:44:38.565Z,8.34
2023-04-19T04:47:10.029Z,8.35
2023-04-19T04:49:38.897Z,8.30
2023-04-19T04:52:30.287Z,8.24
2023-04-19T04:55:18.396Z,8.25
2023-04-19T04:57:46.576Z,8.27
2023-04-19T05:00:15.253Z,8.25
2023-04-19T05:02:42.175Z,8.22
2023-04-19T05:05:11.427Z,8.20
2023-04-19T05:07:44.148Z,8.24
2023-04-19T05:10:25.542Z,8.22
2023-04-19T05:12:58.027Z,8.23
2023-04-19T05:15:36.995Z,8.24
2023-04-19T05:18:11.762Z,8.29
2023-04-19T05:20:39.881Z,8.29
2023-04-19T05:23:29.086Z,8.23
2023-04-19T05:25:55.860Z,8.23
2023-04-19T05:28:24.742Z,8.27
2023-04-19T05:31:01.901Z,8.26
2023-04-19T05:33:43.227Z,8.34
2023-04-19T05:36:17.921Z,9.17
2023-04-19T05:39:00.291Z,9.35
2023-04-19T05:41:30.890Z,9.36
2023-04-19T05:43:59.738Z,9.17
2023-04-19T05:46:28.737Z,9.06
2023-04-19T05:48:59.929Z,9.01
2023-04-19T05:51:28.317Z,8.99
2023-04-19T05:54:00.530Z,9.02
2023-04-19T05:56:37.193Z,9.12
2023-04-19T05:59:06.652Z,9.21
2023-04-19T06:01:33.399Z,9.28
2023-04-19T06:04:00.423Z,9.53
2023-04-19T06:06:28.854Z,9.48
2023-04-19T06:11:51.549Z,9.95
2023-04-19T06:14:19.014Z,10.43
2023-04-19T06:17:02.452Z,10.63
2023-04-19T06:19:34.026Z,10.66
2023-04-19T06:22:03.097Z,10.45
2023-04-19T06:24:37.014Z,10.54
2023-04-19T06:27:18.404Z,11.06
2023-04-19T06:30:05.200Z,12.31
2023-04-19T06:32:48.289Z,12.50
2023-04-19T06:35:42.697Z,12.33
2023-04-19T06:38:11.829Z,13.04
2023-04-19T06:40:50.931Z,13.42
2023-04-19T06:43:17.576Z,13.73
2023-04-19T06:45:44.132Z,13.95
2023-04-19T06:48:10.738Z,13.38
2023-04-19T06:50:50.107Z,12.78
2023-04-19T06:53:31.546Z,12.73
2023-04-19T06:56:04.537Z,12.44
2023-04-19T06:58:39.541Z,12.27
2023-04-19T07:01:06.444Z,12.37
2023-04-19T07:04:04.372Z,12.58
2023-04-19T07:06:21.152Z,13.01
2023-04-19T07:08:51.825Z,13.42
2023-04-19T07:11:24.056Z,12.99
2023-04-19T07:14:20.688Z,12.50
2023-04-19T07:17:05.390Z,12.57
2023-04-19T07:19:46.216Z,12.73
2023-04-19T07:22:56.731Z,12.32
2023-04-19T07:25:47.149Z,12.33
2023-04-19T07:28:21.645Z,12.32
2023-04-19T07:31:09.660Z,12.29
2023-04-19T07:34:06.652Z,12.24
2023-04-19T07:36:41.818Z,12.68
2023-04-19T07:39:19.662Z,13.29
2023-04-19T07:41:48.733Z,13.01
2023-04-19T07:44:25.024Z,12.39
2023-04-19T07:46:55.866Z,12.53
2023-04-19T07:49:30.549Z,12.91
2023-04-19T07:52:09.263Z,12.88
2023-04-19T07:54:45.730Z,12.81
2023-04-19T07:57:14.920Z,13.13
2023-04-19T07:59:49.187Z,12.92
2023-04-19T08:18:12.112Z,13.21
2023-04-19T08:20:47.199Z,13.42
2023-04-19T08:23:22.780Z,13.27
2023-04-19T08:25:53.815Z,13.32
2023-04-19T08:28:20.403Z,13.38
2023-04-19T08:30:47.052Z,13.63
2023-04-19T08:33:13.738Z,13.44
2023-04-19T08:35:42.040Z,13.16
2023-04-19T08:38:09.631Z,13.14
2023-04-19T08:40:52.098Z,13.23
2023-04-19T08:43:22.576Z,13.20
2023-04-19T08:45:51.106Z,13.28
2023-04-19T08:48:18.770Z,13.14
2023-04-19T08:50:56.486Z,13.07
2023-04-19T08:53:31.276Z,13.01
2023-04-19T08:58:46.441Z,13.04
2023-04-19T09:01:31.047Z,13.07
2023-04-19T09:04:10.362Z,13.18
2023-04-19T09:06:43.682Z,13.23
2023-04-19T09:11:54.976Z,12.79
2023-04-19T09:14:23.148Z,12.75
2023-04-19T09:16:52.178Z,12.68
2023-04-19T09:19:24.380Z,12.83
2023-04-19T09:21:53.926Z,13.20
2023-04-19T09:25:13.867Z,13.23
2023-04-19T09:27:31.180Z,13.19
2023-04-19T09:30:02.305Z,13.08
2023-04-19T09:32:30.130Z,13.10
2023-04-19T09:35:00.530Z,13.12
2023-04-19T09:39:56.975Z,13.26
2023-04-19T09:42:42.301Z,13.08
2023-04-19T09:47:40.012Z,13.06
2023-04-19T09:50:21.844Z,13.12
2023-04-19T09:52:52.409Z,13.11
2023-04-19T09:55:26.716Z,13.35
2023-04-19T09:57:55.427Z,13.26
2023-04-19T10:00:25.607Z,13.22
2023-04-19T10:02:58.294Z,13.39
2023-04-19T10:05:26.072Z,13.48
2023-04-19T10:07:59.667Z,13.59
2023-04-19T10:10:41.413Z,13.60
2023-04-19T10:13:19.612Z,13.71
2023-04-19T10:15:52.533Z,13.82
2023-04-19T10:18:21.402Z,13.78
2023-04-19T10:20:55.488Z,13.88
2023-04-19T10:23:23.018Z,14.04
2023-04-19T10:25:49.824Z,13.80
2023-04-19T10:28:16.952Z,13.57
2023-04-19T10:31:01.802Z,13.87
2023-04-19T10:33:35.902Z,14.00
2023-04-19T10:36:02.720Z,14.13
2023-04-19T10:38:36.807Z,13.95
2023-04-19T10:41:05.463Z,14.09
2023-04-19T10:43:35.032Z,14.06
2023-04-19T10:46:14.831Z,14.15
2023-04-19T10:48:55.404Z,14.41
2023-04-19T10:52:10.885Z,14.32
2023-04-19T10:54:41.661Z,14.39
2023-04-19T10:57:10.318Z,14.50
2023-04-19T11:00:01.239Z,14.53
2023-04-19T11:02:29.885Z,14.74
2023-04-19T11:05:04.422Z,14.89
2023-04-19T11:07:43.805Z,14.94
2023-04-19T11:10:28.561Z,14.97
2023-04-19T11:13:12.953Z,14.79
2023-04-19T11:15:44.645Z,14.87
2023-04-19T11:18:18.980Z,15.00
2023-04-19T11:20:45.725Z,15.04
2023-04-19T11:23:17.900Z,15.19
2023-04-19T11:25:47.741Z,15.52
2023-04-19T11:28:21.805Z,15.32
2023-04-19T11:30:49.960Z,15.30
2023-04-19T11:33:24.694Z,15.43
2023-04-19T11:35:54.440Z,15.47
2023-04-19T11:38:21.091Z,15.42
2023-04-19T11:40:49.882Z,15.32
2023-04-19T11:43:26.255Z,15.42
2023-04-19T11:45:59.411Z,15.42
2023-04-19T11:48:26.280Z,15.24
2023-04-19T11:50:58.767Z,15.06
2023-04-19T11:53:38.388Z,14.91
2023-04-19T11:56:15.595Z,15.01
2023-04-19T11:58:51.461Z,15.24
2023-04-19T12:01:23.612Z,15.39
2023-04-19T12:03:56.883Z,15.42
2023-04-19T12:06:40.040Z,15.59
2023-04-19T12:09:11.768Z,15.39
2023-04-19T12:11:52.493Z,15.18
2023-04-19T12:14:23.409Z,15.20
2023-04-19T12:17:15.929Z,15.52
2023-04-19T12:19:54.123Z,15.49
2023-04-19T12:22:24.059Z,15.42
2023-04-19T12:25:02.615Z,15.51
2023-04-19T12:27:34.797Z,15.29
2023-04-19T12:30:19.984Z,15.52
2023-04-19T12:32:59.444Z,15.48
2023-04-19T12:35:27.661Z,15.46
2023-04-19T12:38:07.430Z,15.79
2023-04-19T12:40:35.464Z,15.83
2023-04-19T12:43:08.581Z,15.68
2023-04-19T12:45:38.290Z,15.59
2023-04-19T12:48:08.191Z,15.58
2023-04-19T12:50:35.022Z,15.65
2023-04-19T12:53:01.624Z,15.72
2023-04-19T12:55:28.386Z,15.67
2023-04-19T12:57:55.296Z,15.71
2023-04-19T13:00:24.920Z,15.80
2023-04-19T13:02:51.709Z,15.84
2023-04-19T13:05:32.569Z,15.88
2023-04-19T13:08:01.617Z,15.69
2023-04-19T13:10:30.511Z,15.41
2023-04-19T13:13:05.753Z,15.39
2023-04-19T13:15:32.400Z,15.50
2023-04-19T13:18:05.244Z,15.62
2023-04-19T13:20:35.557Z,15.66
2023-04-19T13:23:09.547Z,15.79
2023-04-19T13:25:37.716Z,15.78
2023-04-19T13:28:10.973Z,15.71
2023-04-19T13:30:37.792Z,15.55
2023-04-19T13:33:08.205Z,15.50
2023-04-19T13:35:35.574Z,15.42
2023-04-19T13:38:25.367Z,15.42
2023-04-19T13:40:54.669Z,15.42
2023-04-19T13:43:24.823Z,15.27
2023-04-19T13:45:51.625Z,15.25
2023-04-19T13:48:19.204Z,15.44
2023-04-19T13:50:52.391Z,15.55
2023-04-19T13:53:19.062Z,15.62
2023-04-19T13:55:49.850Z,15.61
2023-04-19T13:58:19.615Z,15.34
2023-04-19T14:00:49.136Z,15.28
2023-04-19T14:03:16.069Z,15.26
2023-04-19T14:05:43.002Z,15.31
2023-04-19T14:08:24.514Z,15.30
2023-04-19T14:11:04.827Z,15.40
2023-04-19T14:13:31.592Z,15.41
2023-04-19T14:16:00.410Z,15.56
2023-04-19T14:18:27.119Z,15.61
2023-04-19T14:21:14.268Z,15.60
2023-04-19T14:23:40.965Z,15.44
2023-04-19T14:26:09.901Z,15.49
2023-04-19T14:28:46.029Z,15.33
2023-04-19T14:31:16.159Z,15.31
2023-04-19T14:33:42.849Z,15.27
2023-04-19T14:36:09.561Z,15.31
2023-04-19T14:38:36.282Z,15.30
2023-04-19T14:41:03.554Z,15.29
2023-04-19T14:43:33.725Z,15.32
2023-04-19T14:46:00.538Z,15.18
2023-04-19T14:48:27.252Z,15.19
2023-04-19T14:50:53.926Z,15.09
2023-04-19T14:53:20.597Z,15.09
2023-04-19T14:55:47.169Z,15.21
2023-04-19T14:58:13.822Z,15.18
2023-04-19T15:00:40.978Z,14.95
2023-04-19T15:03:07.990Z,14.90
2023-04-19T15:05:36.722Z,14.91
2023-04-19T15:08:03.456Z,14.97
2023-04-19T15:10:30.209Z,15.05
2023-04-19T15:12:59.069Z,14.92
2023-04-19T15:15:31.026Z,14.82
2023-04-19T15:17:57.989Z,14.82
2023-04-19T15:20:24.811Z,14.84
2023-04-19T15:22:54.232Z,14.74
2023-04-19T15:25:26.220Z,14.72
2023-04-19T15:28:09.811Z,14.84
2023-04-19T15:30:36.484Z,14.83
2023-04-19T15:33:03.186Z,14.83
2023-04-19T15:35:34.861Z,14.85
2023-04-19T15:38:02.967Z,14.81
2023-04-19T15:40:30.141Z,14.79
2023-04-19T15:42:59.154Z,14.72
2023-04-19T15:45:26.139Z,14.78
2023-04-19T15:47:57.698Z,14.72
2023-04-19T15:50:27.923Z,14.73
2023-04-19T15:52:54.656Z,14.68
2023-04-19T15:55:21.488Z,14.74
2023-04-19T15:57:51.218Z,14.66
2023-04-19T16:00:20.441Z,14.58
2023-04-19T16:02:48.161Z,14.45
2023-04-19T16:05:37.785Z,14.28
2023-04-19T16:08:06.909Z,14.31
2023-04-19T16:10:33.709Z,14.33
2023-04-19T16:13:04.215Z,14.33
2023-04-19T16:15:31.151Z,14.36
2023-04-19T16:17:57.828Z,14.39
2023-04-19T16:20:25.457Z,14.44
2023-04-19T16:22:52.400Z,14.38
2023-04-19T16:25:20.493Z,14.26
2023-04-19T16:27:54.386Z,14.18
2023-04-19T16:30:22.290Z,14.17
2023-04-19T16:32:49.518Z,14.22
2023-04-19T16:35:18.319Z,14.18
2023-04-19T16:37:45.077Z,14.14
2023-04-19T16:40:15.696Z,14.08
2023-04-19T16:42:42.405Z,14.09
2023-04-19T16:45:09.780Z,14.09
2023-04-19T16:47:46.953Z,14.11
2023-04-19T16:50:22.176Z,14.05
2023-04-19T16:52:51.097Z,14.02
2023-04-19T16:55:22.307Z,13.99
2023-04-19T16:57:53.709Z,13.96
2023-04-19T17:00:20.963Z,13.95
2023-04-19T17:02:48.118Z,13.89
2023-04-19T17:05:16.118Z,13.89
2023-04-19T17:07:45.529Z,13.82
2023-04-19T17:10:15.917Z,13.79
2023-04-19T17:12:46.966Z,13.73
2023-04-19T17:15:18.336Z,13.70
2023-04-19T17:17:46.650Z,13.69
2023-04-19T17:20:16.737Z,13.65
2023-04-19T17:22:43.419Z,13.66
2023-04-19T17:25:13.718Z,13.61
2023-04-19T17:27:43.351Z,13.56
2023-04-19T17:30:14.521Z,13.55
2023-04-19T17:32:41.469Z,13.57
2023-04-19T17:35:15.799Z,13.46
2023-04-19T17:37:43.713Z,13.39
2023-04-19T17:40:11.098Z,13.37
2023-04-19T17:42:44.328Z,13.32
2023-04-19T17:45:19.123Z,13.31
2023-04-19T17:47:46.398Z,13.26
2023-04-19T17:50:27.720Z,13.16
2023-04-19T17:52:57.359Z,13.04
2023-04-19T17:55:27.538Z,13.06
2023-04-19T17:57:54.330Z,12.91
2023-04-19T18:00:21.059Z,12.92
2023-04-19T18:02:50.665Z,12.93
2023-04-19T18:05:17.903Z,12.91
2023-04-19T18:07:44.551Z,12.82
2023-04-19T18:10:13.402Z,12.77
2023-04-19T18:12:44.603Z,12.75
2023-04-19T18:15:12.818Z,12.61
2023-04-19T18:17:39.609Z,12.53
2023-04-19T18:20:13.105Z,12.50
2023-04-19T18:22:43.184Z,12.49
2023-04-19T18:25:10.113Z,12.44
2023-04-19T18:27:37.064Z,12.39
2023-04-19T18:30:07.803Z,12.36
2023-04-19T18:32:35.629Z,12.22
2023-04-19T18:35:04.485Z,12.22
2023-04-19T18:37:31.254Z,12.19
2023-04-19T18:39:57.918Z,12.12
2023-04-19T18:42:28.018Z,12.03
2023-04-19T18:44:57.228Z,12.00
2023-04-19T18:47:27.678Z,11.96
2023-04-19T18:52:24.328Z,11.83
2023-04-19T18:54:56.248Z,11.72
2023-04-19T18:57:24.343Z,11.47
2023-04-19T18:59:56.026Z,11.34
2023-04-19T19:02:22.802Z,11.29
2023-04-19T19:04:57.150Z,11.17
2023-04-19T19:10:04.029Z,11.06
2023-04-19T19:12:42.763Z,11.06
2023-04-19T19:15:09.958Z,10.98
2023-04-19T19:17:36.661Z,10.86
2023-04-19T19:20:05.220Z,10.86
2023-04-19T19:22:32.100Z,10.78
2023-04-19T19:24:58.877Z,10.79
2023-04-19T19:27:25.602Z,10.74
2023-04-19T19:29:52.305Z,10.73
2023-04-19T19:32:21.404Z,10.71
2023-04-19T19:37:19.816Z,10.65
2023-04-19T19:39:48.631Z,10.62
2023-04-19T19:42:18.667Z,10.56
2023-04-19T19:44:45.548Z,10.51
2023-04-19T19:47:13.220Z,10.43
2023-04-19T19:49:57.524Z,10.35
2023-04-19T19:52:31.842Z,10.41
2023-04-19T19:54:59.394Z,10.38
2023-04-19T19:59:56.907Z,10.47
2023-04-19T20:02:26.645Z,10.54
2023-04-19T20:04:53.723Z,10.51
2023-04-19T20:09:52.440Z,10.52
2023-04-19T20:12:19.283Z,10.49
2023-04-19T20:14:45.985Z,10.47
2023-04-19T20:17:14.873Z,10.48
2023-04-19T20:23:26.409Z,10.36
2023-04-19T20:25:52.826Z,10.32
2023-04-19T20:28:21.783Z,10.33
2023-04-19T20:33:52.631Z,10.29
2023-04-19T20:36:47.365Z,10.22
2023-04-19T20:40:18.990Z,10.12
2023-04-19T20:42:10.691Z,10.08
2023-04-19T20:44:48.898Z,9.99
2023-04-19T20:47:43.057Z,9.96
2023-04-19T20:50:23.465Z,9.93
2023-04-19T20:52:59.735Z,9.89
2023-04-19T20:57:08.229Z,9.87
2023-04-19T20:59:05.962Z,9.83
2023-04-19T21:02:07.508Z,9.77
2023-04-19T21:04:32.800Z,9.72
2023-04-19T21:07:01.021Z,9.69
2023-04-19T21:09:37.133Z,9.66
2023-04-19T21:12:04.213Z,9.61
2023-04-19T21:14:33.523Z,9.57
2023-04-19T21:17:38.575Z,9.52
2023-04-19T21:21:01.145Z,9.49
2023-04-19T21:23:27.724Z,9.46
2023-04-19T21:26:54.370Z,9.43
2023-04-19T21:28:55.119Z,9.36
2023-04-19T21:31:33.364Z,9.32
2023-04-19T21:34:19.786Z,9.28
2023-04-19T21:37:14.449Z,9.27
2023-04-19T21:40:05.020Z,9.22
2023-04-19T21:43:03.412Z,9.18
2023-04-19T21:46:18.116Z,9.20
2023-04-19T21:48:53.600Z,9.10
2023-04-19T21:51:33.589Z,9.05
2023-04-19T21:54:26.624Z,9.00
2023-04-19T21:57:11.162Z,8.92
2023-04-19T21:59:55.042Z,8.91
2023-04-19T22:02:39.588Z,8.92
2023-04-19T22:05:36.574Z,8.85
2023-04-19T22:08:25.836Z,8.80
2023-04-19T22:10:53.027Z,8.77
2023-04-19T22:13:22.127Z,8.74
2023-04-19T22:15:58.833Z,8.72
2023-04-19T22:18:41.582Z,8.61
2023-04-19T22:21:26.435Z,8.60
2023-04-19T22:24:13.162Z,8.53
2023-04-19T22:26:53.388Z,8.50
2023-04-19T22:29:41.819Z,8.48
2023-04-19T22:32:23.333Z,8.41
2023-04-19T22:35:07.741Z,8.41
2023-04-19T22:37:41.043Z,8.30
2023-04-19T22:40:16.158Z,8.28
2023-04-19T22:42:52.069Z,8.19
2023-04-19T22:45:44.339Z,8.25
2023-04-19T22:51:23.361Z,8.12
2023-04-19T22:54:46.069Z,8.05
2023-04-19T22:57:37.152Z,8.11
2023-04-19T23:00:21.907Z,8.05
2023-04-19T23:03:00.186Z,8.08
2023-04-19T23:09:21.155Z,8.02
2023-04-19T23:11:53.424Z,7.96
2023-04-19T23:14:26.154Z,7.84
2023-04-19T23:17:20.594Z,7.82
2023-04-19T23:20:21.145Z,7.80
2023-04-19T23:23:04.448Z,7.77
2023-04-19T23:25:57.633Z,7.68
2023-04-19T23:28:50.960Z,7.67
2023-04-19T23:31:40.735Z,7.49
2023-04-19T23:34:14.496Z,7.39
2023-04-19T23:36:45.989Z,7.31
2023-04-19T23:39:36.819Z,7.32
2023-04-19T23:42:12.288Z,7.22
2023-04-19T23:44:54.128Z,7.20
2023-04-19T23:47:39.537Z,7.16
2023-04-19T23:50:58.962Z,7.09
2023-04-19T23:53:28.247Z,7.04
2023-04-19T23:56:01.548Z,6.96
2023-04-19T23:58:37.829Z,6.96
